Tampa, Florida
Traffic Map
Current Weather Conditions
Tampa, Florida
Clear
Clear

Feels Like: 7°
Wind Chill: Ceiling: Unl
Heat Index: Visibility: 10mi
Dew Point: Wind: 5mph
Humidity: 77% Direction: 70° (ENE)
Pressure: 30.34in Gusts: 0mph
Raw Report DataKTPA 111253Z 07004KT 10SM CLR 08/04 A3034 RMK AO2 SLP272 T00830044
Traffic Incident Summary
Active as of:
Severity:
Category:
InformationThere was an issue retrieving the traffic information for this location. Please try a different location or try again shortly.
Advertisements
Track Severe Weather on mobile